createdAt,value
2023-03-27T00:00:21.075Z,980.24
2023-03-27T00:01:21.010Z,980.32
2023-03-27T00:02:21.103Z,980.23
2023-03-27T00:03:21.036Z,980.40
2023-03-27T00:04:21.146Z,980.41
2023-03-27T00:05:20.970Z,980.35
2023-03-27T00:06:20.946Z,980.40
2023-03-27T00:07:20.976Z,980.49
2023-03-27T00:08:20.944Z,980.53
2023-03-27T00:09:20.987Z,980.59
2023-03-27T00:10:20.895Z,980.65
2023-03-27T00:11:20.912Z,980.63
2023-03-27T00:12:20.872Z,980.71
2023-03-27T00:13:20.905Z,980.70
2023-03-27T00:14:20.865Z,980.69
2023-03-27T00:15:20.873Z,980.69
2023-03-27T00:16:20.848Z,980.86
2023-03-27T00:17:20.904Z,980.79
2023-03-27T00:18:20.845Z,980.83
2023-03-27T00:19:20.812Z,980.84
2023-03-27T00:20:20.831Z,980.96
2023-03-27T00:21:20.818Z,981.06
2023-03-27T00:22:20.833Z,980.95
2023-03-27T00:23:20.795Z,980.97
2023-03-27T00:24:20.765Z,981.04
2023-03-27T00:25:20.773Z,981.06
2023-03-27T00:26:20.780Z,981.10
2023-03-27T00:27:20.773Z,981.07
2023-03-27T00:28:20.723Z,981.18
2023-03-27T00:29:20.762Z,981.18
2023-03-27T00:30:20.743Z,981.15
2023-03-27T00:31:20.746Z,981.10
2023-03-27T00:32:20.739Z,981.13
2023-03-27T00:33:20.745Z,981.11
2023-03-27T00:34:20.683Z,981.16
2023-03-27T00:35:20.749Z,981.16
2023-03-27T00:36:20.714Z,981.11
2023-03-27T00:37:20.678Z,981.13
2023-03-27T00:38:21.620Z,981.15
2023-03-27T00:39:20.642Z,981.18
2023-03-27T00:40:20.606Z,981.19
2023-03-27T00:41:20.642Z,981.23
2023-03-27T00:42:20.623Z,981.24
2023-03-27T00:43:20.619Z,981.28
2023-03-27T00:44:20.680Z,981.28
2023-03-27T00:45:20.601Z,981.33
2023-03-27T00:46:20.679Z,981.32
2023-03-27T00:47:20.582Z,981.37
2023-03-27T00:48:20.523Z,981.37
2023-03-27T00:49:21.538Z,981.35
2023-03-27T00:50:20.571Z,981.42
2023-03-27T00:51:20.544Z,981.37
2023-03-27T00:52:20.532Z,981.43
2023-03-27T00:53:20.515Z,981.43
2023-03-27T00:54:20.510Z,981.44
2023-03-27T00:55:20.545Z,981.45
2023-03-27T00:56:20.472Z,981.47
2023-03-27T00:57:20.488Z,981.47
2023-03-27T00:58:20.443Z,981.51
2023-03-27T00:59:20.428Z,981.51
2023-03-27T01:00:20.420Z,981.57
2023-03-27T01:01:20.469Z,981.55
2023-03-27T01:02:20.478Z,981.54
2023-03-27T01:03:20.503Z,981.53
2023-03-27T01:04:20.493Z,981.60
2023-03-27T01:05:20.386Z,981.61
2023-03-27T01:06:20.416Z,981.56
2023-03-27T01:07:20.394Z,981.59
2023-03-27T01:08:20.340Z,981.57
2023-03-27T01:09:21.631Z,981.64
2023-03-27T01:10:20.345Z,981.63
2023-03-27T01:11:20.332Z,981.58
2023-03-27T01:12:20.356Z,981.66
2023-03-27T01:13:20.308Z,981.64
2023-03-27T01:14:20.291Z,981.68
2023-03-27T01:15:20.288Z,981.74
2023-03-27T01:16:20.311Z,981.76
2023-03-27T01:17:20.323Z,981.85
2023-03-27T01:18:20.257Z,981.89
2023-03-27T01:19:20.261Z,981.84
2023-03-27T01:20:20.249Z,981.98
2023-03-27T01:21:20.236Z,981.92
2023-03-27T01:22:20.227Z,981.95
2023-03-27T01:23:58.465Z,981.99
2023-03-27T01:24:22.197Z,981.97
2023-03-27T01:25:20.207Z,981.95
2023-03-27T01:26:36.010Z,981.98
2023-03-27T01:27:21.223Z,981.96
2023-03-27T01:28:20.179Z,981.89
2023-03-27T01:29:20.161Z,981.95
2023-03-27T01:30:20.150Z,981.94
2023-03-27T01:31:20.152Z,981.91
2023-03-27T01:32:20.142Z,981.91
2023-03-27T01:33:20.111Z,981.91
2023-03-27T01:34:20.125Z,981.97
2023-03-27T01:35:21.017Z,982.05
2023-03-27T01:36:21.092Z,982.04
2023-03-27T01:37:20.083Z,982.04
2023-03-27T01:38:20.094Z,982.12
2023-03-27T01:39:20.061Z,982.14
2023-03-27T01:40:20.071Z,982.20
2023-03-27T01:41:20.050Z,982.16
2023-03-27T01:42:20.060Z,982.17
2023-03-27T01:43:20.016Z,982.18
2023-03-27T01:44:20.083Z,982.21
2023-03-27T01:45:20.048Z,982.26
2023-03-27T01:46:20.031Z,982.25
2023-03-27T01:47:19.980Z,982.28
2023-03-27T01:48:19.995Z,982.31
2023-03-27T01:49:19.987Z,982.30
2023-03-27T01:50:19.953Z,982.36
2023-03-27T01:51:19.985Z,982.37
2023-03-27T01:52:19.957Z,982.42
2023-03-27T01:53:19.928Z,982.44
2023-03-27T01:54:19.926Z,982.47
2023-03-27T01:55:19.938Z,982.43
2023-03-27T01:56:19.910Z,982.44
2023-03-27T01:57:19.931Z,982.45
2023-03-27T01:58:19.896Z,982.52
2023-03-27T01:59:19.893Z,982.55
2023-03-27T02:00:19.900Z,982.51
2023-03-27T02:01:19.889Z,982.54
2023-03-27T02:02:19.844Z,982.59
2023-03-27T02:03:19.823Z,982.59
2023-03-27T02:04:19.869Z,982.64
2023-03-27T02:05:19.859Z,982.69
2023-03-27T02:06:51.723Z,982.65
2023-03-27T02:07:19.807Z,982.72
2023-03-27T02:08:19.801Z,982.66
2023-03-27T02:09:19.889Z,982.70
2023-03-27T02:10:19.783Z,982.70
2023-03-27T02:11:19.775Z,982.66
2023-03-27T02:12:19.776Z,982.72
2023-03-27T02:13:19.803Z,982.76
2023-03-27T02:14:19.749Z,982.72
2023-03-27T02:15:23.160Z,982.73
2023-03-27T02:16:20.747Z,982.77
2023-03-27T02:17:19.815Z,982.75
2023-03-27T02:18:19.731Z,982.83
2023-03-27T02:19:19.723Z,982.75
2023-03-27T02:20:19.701Z,982.84
2023-03-27T02:21:19.675Z,982.84
2023-03-27T02:22:19.642Z,982.89
2023-03-27T02:23:19.659Z,982.82
2023-03-27T02:24:19.652Z,982.91
2023-03-27T02:25:19.627Z,982.95
2023-03-27T02:26:19.622Z,982.94
2023-03-27T02:27:19.596Z,982.99
2023-03-27T02:28:19.593Z,982.99
2023-03-27T02:29:19.594Z,983.03
2023-03-27T02:30:19.575Z,983.11
2023-03-27T02:31:33.711Z,983.15
2023-03-27T02:32:20.623Z,983.19
2023-03-27T02:33:19.647Z,983.16
2023-03-27T02:34:19.558Z,983.19
2023-03-27T02:35:19.552Z,983.20
2023-03-27T02:36:19.515Z,983.23
2023-03-27T02:37:19.517Z,983.19
2023-03-27T02:38:19.527Z,983.19
2023-03-27T02:39:19.495Z,983.28
2023-03-27T02:40:19.487Z,983.28
2023-03-27T02:41:19.457Z,983.34
2023-03-27T02:42:19.493Z,983.36
2023-03-27T02:43:19.465Z,983.36
2023-03-27T02:44:19.457Z,983.42
2023-03-27T02:45:19.422Z,983.36
2023-03-27T02:46:19.463Z,983.38
2023-03-27T02:47:19.429Z,983.44
2023-03-27T02:48:19.423Z,983.52
2023-03-27T02:49:19.423Z,983.48
2023-03-27T02:50:19.413Z,983.49
2023-03-27T02:51:19.407Z,983.59
2023-03-27T02:52:19.381Z,983.63
2023-03-27T02:53:19.383Z,983.67
2023-03-27T02:54:19.399Z,983.69
2023-03-27T02:55:19.368Z,983.68
2023-03-27T02:56:19.337Z,983.74
2023-03-27T02:57:19.327Z,983.74
2023-03-27T02:58:19.307Z,983.76
2023-03-27T02:59:19.346Z,983.80
2023-03-27T03:00:20.300Z,983.74
2023-03-27T03:01:19.309Z,983.84
2023-03-27T03:02:19.411Z,983.86
2023-03-27T03:03:19.347Z,983.90
2023-03-27T03:04:19.248Z,983.87
2023-03-27T03:05:19.252Z,983.92
2023-03-27T03:06:19.237Z,983.96
2023-03-27T03:07:19.214Z,983.98
2023-03-27T03:08:19.232Z,984.04
2023-03-27T03:09:19.197Z,984.04
2023-03-27T03:10:19.227Z,984.02
2023-03-27T03:11:19.188Z,984.08
2023-03-27T03:12:19.194Z,984.13
2023-03-27T03:13:19.196Z,984.09
2023-03-27T03:14:19.173Z,984.19
2023-03-27T03:15:19.144Z,984.17
2023-03-27T03:16:19.222Z,984.16
2023-03-27T03:17:19.130Z,984.15
2023-03-27T03:18:19.111Z,984.22
2023-03-27T03:19:19.124Z,984.23
2023-03-27T03:20:19.104Z,984.25
2023-03-27T03:21:19.090Z,984.24
2023-03-27T03:22:19.107Z,984.23
2023-03-27T03:23:19.097Z,984.29
2023-03-27T03:24:19.088Z,984.41
2023-03-27T03:25:19.052Z,984.37
2023-03-27T03:26:19.101Z,984.38
2023-03-27T03:27:19.051Z,984.38
2023-03-27T03:28:19.025Z,984.51
2023-03-27T03:29:19.101Z,984.52
2023-03-27T03:30:19.004Z,984.53
2023-03-27T03:31:19.035Z,984.54
2023-03-27T03:32:19.004Z,984.60
2023-03-27T03:33:19.003Z,984.59
2023-03-27T03:34:19.145Z,984.65
2023-03-27T03:35:18.944Z,984.52
2023-03-27T03:36:18.940Z,984.63
2023-03-27T03:37:18.917Z,984.55
2023-03-27T03:38:18.928Z,984.71
2023-03-27T03:39:18.948Z,984.71
2023-03-27T03:40:18.912Z,984.63
2023-03-27T03:41:18.919Z,984.72
2023-03-27T03:42:22.330Z,984.71
2023-03-27T03:43:18.869Z,984.80
2023-03-27T03:44:18.912Z,984.79
2023-03-27T03:45:18.881Z,984.90
2023-03-27T03:46:18.915Z,984.94
2023-03-27T03:47:18.840Z,984.87
2023-03-27T03:48:18.829Z,984.85
2023-03-27T03:49:18.822Z,984.99
2023-03-27T03:50:18.832Z,984.94
2023-03-27T03:51:18.811Z,984.99
2023-03-27T03:52:18.835Z,985.00
2023-03-27T03:53:18.811Z,984.99
2023-03-27T03:54:18.774Z,985.11
2023-03-27T03:55:18.779Z,985.01
2023-03-27T03:56:18.777Z,985.12
2023-03-27T03:57:18.804Z,985.12
2023-03-27T03:58:18.748Z,985.16
2023-03-27T03:59:18.730Z,985.13
2023-03-27T04:00:18.734Z,985.14
2023-03-27T04:01:18.724Z,985.22
2023-03-27T04:02:18.736Z,985.17
2023-03-27T04:03:18.813Z,985.18
2023-03-27T04:04:18.707Z,985.17
2023-03-27T04:05:18.714Z,985.20
2023-03-27T04:06:20.485Z,985.22
2023-03-27T04:07:18.665Z,985.26
2023-03-27T04:08:18.640Z,985.25
2023-03-27T04:09:18.646Z,985.29
2023-03-27T04:10:18.602Z,985.33
2023-03-27T04:11:18.608Z,985.35
2023-03-27T04:12:18.625Z,985.36
2023-03-27T04:13:18.601Z,985.34
2023-03-27T04:14:18.612Z,985.37
2023-03-27T04:15:18.588Z,985.42
2023-03-27T04:16:18.585Z,985.46
2023-03-27T04:17:18.561Z,985.46
2023-03-27T04:18:18.599Z,985.48
2023-03-27T04:19:18.546Z,985.46
2023-03-27T04:20:18.537Z,985.50
2023-03-27T04:21:18.515Z,985.51
2023-03-27T04:22:18.485Z,985.60
2023-03-27T04:23:18.511Z,985.61
2023-03-27T04:24:18.469Z,985.60
2023-03-27T04:25:18.549Z,985.68
2023-03-27T04:26:18.499Z,985.72
2023-03-27T04:27:18.455Z,985.71
2023-03-27T04:28:18.511Z,985.85
2023-03-27T04:29:18.472Z,985.84
2023-03-27T04:30:18.437Z,985.83
2023-03-27T04:31:18.428Z,985.86
2023-03-27T04:32:18.433Z,985.99
2023-03-27T04:33:18.557Z,986.02
2023-03-27T04:34:18.416Z,986.06
2023-03-27T04:35:18.373Z,986.12
2023-03-27T04:36:18.442Z,985.99
2023-03-27T04:37:18.377Z,986.06
2023-03-27T04:38:19.354Z,986.08
2023-03-27T04:39:18.376Z,986.09
2023-03-27T04:40:18.390Z,986.17
2023-03-27T04:41:18.302Z,986.12
2023-03-27T04:42:18.307Z,986.20
2023-03-27T04:43:19.337Z,986.17
2023-03-27T04:44:18.342Z,986.25
2023-03-27T04:45:18.309Z,986.21
2023-03-27T04:46:18.368Z,986.27
2023-03-27T04:47:18.291Z,986.29
2023-03-27T04:48:18.282Z,986.26
2023-03-27T04:49:18.269Z,986.33
2023-03-27T04:50:18.280Z,986.31
2023-03-27T04:51:18.255Z,986.33
2023-03-27T04:52:18.248Z,986.41
2023-03-27T04:53:18.230Z,986.37
2023-03-27T04:54:18.218Z,986.39
2023-03-27T04:55:18.254Z,986.41
2023-03-27T04:56:18.206Z,986.46
2023-03-27T04:57:18.225Z,986.51
2023-03-27T04:58:18.191Z,986.45
2023-03-27T04:59:18.167Z,986.47
2023-03-27T05:00:18.215Z,986.55
2023-03-27T05:01:18.170Z,986.51
2023-03-27T05:02:18.154Z,986.53
2023-03-27T05:03:18.166Z,986.54
2023-03-27T05:04:18.109Z,986.56
2023-03-27T05:05:18.090Z,986.65
2023-03-27T05:06:18.151Z,986.61
2023-03-27T05:07:18.052Z,986.62
2023-03-27T05:08:18.082Z,986.60
2023-03-27T05:09:18.078Z,986.63
2023-03-27T05:10:21.697Z,986.59
2023-03-27T05:11:18.079Z,986.60
2023-03-27T05:12:18.031Z,986.67
2023-03-27T05:13:18.040Z,986.66
2023-03-27T05:14:18.047Z,986.74
2023-03-27T05:15:18.001Z,986.68
2023-03-27T05:16:18.020Z,986.71
2023-03-27T05:17:17.993Z,986.70
2023-03-27T05:18:17.947Z,986.76
2023-03-27T05:19:17.974Z,986.81
2023-03-27T05:20:18.070Z,986.78
2023-03-27T05:21:17.953Z,986.82
2023-03-27T05:22:17.913Z,986.82
2023-03-27T05:23:17.941Z,986.89
2023-03-27T05:24:17.930Z,986.81
2023-03-27T05:25:17.940Z,986.91
2023-03-27T05:26:17.904Z,986.96
2023-03-27T05:27:17.889Z,986.92
2023-03-27T05:28:17.914Z,986.99
2023-03-27T05:29:17.867Z,987.03
2023-03-27T05:30:17.864Z,987.06
2023-03-27T05:31:17.936Z,987.02
2023-03-27T05:32:17.830Z,987.03
2023-03-27T05:33:17.895Z,987.10
2023-03-27T05:34:17.821Z,987.05
2023-03-27T05:35:17.920Z,987.14
2023-03-27T05:36:17.852Z,987.11
2023-03-27T05:37:17.793Z,987.14
2023-03-27T05:38:17.812Z,987.16
2023-03-27T05:39:17.800Z,987.09
2023-03-27T05:40:17.778Z,987.12
2023-03-27T05:41:17.737Z,987.18
2023-03-27T05:42:17.749Z,987.12
2023-03-27T05:43:17.785Z,987.17
2023-03-27T05:44:17.759Z,987.24
2023-03-27T05:45:17.738Z,987.20
2023-03-27T05:46:20.868Z,987.24
2023-03-27T05:47:17.717Z,987.27
2023-03-27T05:48:17.713Z,987.29
2023-03-27T05:49:17.686Z,987.22
2023-03-27T05:50:17.672Z,987.30
2023-03-27T05:51:17.657Z,987.31
2023-03-27T05:52:17.775Z,987.30
2023-03-27T05:53:17.650Z,987.36
2023-03-27T05:54:17.668Z,987.30
2023-03-27T05:55:17.646Z,987.23
2023-03-27T05:56:17.617Z,987.31
2023-03-27T05:57:17.752Z,987.31
2023-03-27T05:58:17.581Z,987.29
2023-03-27T05:59:17.591Z,987.30
2023-03-27T06:00:17.605Z,987.29
2023-03-27T06:01:17.570Z,987.34
2023-03-27T06:02:19.184Z,987.33
2023-03-27T06:03:17.689Z,987.36
2023-03-27T06:04:17.577Z,987.35
2023-03-27T06:05:17.540Z,987.39
2023-03-27T06:06:17.518Z,987.37
2023-03-27T06:07:17.530Z,987.32
2023-03-27T06:08:17.507Z,987.32
2023-03-27T06:09:17.486Z,987.28
2023-03-27T06:10:17.485Z,987.31
2023-03-27T06:11:17.466Z,987.33
2023-03-27T06:12:17.459Z,987.38
2023-03-27T06:13:17.499Z,987.41
2023-03-27T06:14:17.445Z,987.38
2023-03-27T06:15:17.434Z,987.42
2023-03-27T06:16:17.475Z,987.54
2023-03-27T06:17:17.413Z,987.44
2023-03-27T06:18:17.388Z,987.53
2023-03-27T06:19:17.469Z,987.52
2023-03-27T06:20:17.405Z,987.50
2023-03-27T06:21:17.383Z,987.59
2023-03-27T06:22:17.336Z,987.59
2023-03-27T06:23:17.354Z,987.62
2023-03-27T06:24:17.357Z,987.64
2023-03-27T06:25:17.395Z,987.73
2023-03-27T06:26:17.318Z,987.66
2023-03-27T06:27:17.383Z,987.70
2023-03-27T06:28:17.283Z,987.49
2023-03-27T06:29:17.307Z,987.53
2023-03-27T06:30:17.392Z,987.54
2023-03-27T06:31:17.356Z,987.67
2023-03-27T06:32:17.310Z,987.67
2023-03-27T06:33:17.250Z,987.83
2023-03-27T06:34:17.261Z,987.79
2023-03-27T06:35:18.836Z,987.73
2023-03-27T06:36:17.244Z,987.64
2023-03-27T06:37:17.210Z,987.60
2023-03-27T06:38:17.221Z,987.70
2023-03-27T06:39:17.244Z,987.67
2023-03-27T06:40:17.329Z,987.73
2023-03-27T06:41:17.188Z,987.80
2023-03-27T06:42:17.181Z,987.84
2023-03-27T06:43:17.146Z,987.72
2023-03-27T06:44:17.126Z,987.79
2023-03-27T06:45:17.173Z,987.65
2023-03-27T06:46:17.145Z,987.77
2023-03-27T06:47:17.160Z,987.89
2023-03-27T06:48:20.572Z,987.91
2023-03-27T06:49:18.094Z,987.77
2023-03-27T06:50:17.106Z,987.71
2023-03-27T06:51:17.103Z,987.82
2023-03-27T06:52:17.064Z,987.93
2023-03-27T06:53:26.737Z,987.84
2023-03-27T06:54:19.095Z,987.88
2023-03-27T06:55:17.073Z,987.93
2023-03-27T06:56:17.042Z,987.97
2023-03-27T06:57:17.196Z,987.97
2023-03-27T06:58:17.053Z,987.91
2023-03-27T06:59:16.998Z,988.06
2023-03-27T07:00:17.037Z,987.98
2023-03-27T07:01:17.012Z,988.07
2023-03-27T07:02:17.038Z,988.06
2023-03-27T07:03:17.058Z,988.04
2023-03-27T07:04:16.954Z,988.07
2023-03-27T07:05:16.935Z,988.16
2023-03-27T07:06:16.981Z,988.09
2023-03-27T07:07:17.180Z,988.13
2023-03-27T07:09:17.897Z,988.05
2023-03-27T07:10:16.919Z,988.12
2023-03-27T07:11:17.192Z,988.15
2023-03-27T07:12:17.857Z,988.19
2023-03-27T07:13:16.856Z,988.27
2023-03-27T07:14:16.844Z,988.17
2023-03-27T07:15:17.259Z,988.14
2023-03-27T07:16:16.885Z,988.25
2023-03-27T07:17:16.820Z,988.29
2023-03-27T07:18:17.809Z,988.38
2023-03-27T07:19:16.794Z,988.31
2023-03-27T07:20:16.802Z,988.38
2023-03-27T07:21:16.778Z,988.39
2023-03-27T07:22:16.779Z,988.46
2023-03-27T07:23:16.755Z,988.35
2023-03-27T07:24:17.725Z,988.41
2023-03-27T07:25:16.754Z,988.40
2023-03-27T07:26:16.738Z,988.30
2023-03-27T07:27:16.735Z,988.54
2023-03-27T07:28:16.745Z,988.43
2023-03-27T07:29:16.762Z,988.45
2023-03-27T07:30:16.679Z,988.36
2023-03-27T07:31:32.583Z,988.35
2023-03-27T07:32:29.505Z,988.37
2023-03-27T07:33:18.752Z,988.35
2023-03-27T07:34:16.815Z,988.38
2023-03-27T07:35:16.671Z,988.34
2023-03-27T07:36:16.636Z,988.38
2023-03-27T07:37:16.638Z,988.32
2023-03-27T07:38:16.633Z,988.33
2023-03-27T07:39:16.590Z,988.31
2023-03-27T07:40:17.353Z,988.35
2023-03-27T07:41:16.586Z,988.37
2023-03-27T07:42:16.583Z,988.38
2023-03-27T07:43:16.626Z,988.44
2023-03-27T07:44:16.562Z,988.40
2023-03-27T07:45:16.559Z,988.50
2023-03-27T07:46:16.592Z,988.43
2023-03-27T07:47:16.518Z,988.48
2023-03-27T07:48:16.510Z,988.39
2023-03-27T07:49:16.499Z,988.26
2023-03-27T07:50:16.493Z,988.40
2023-03-27T07:51:16.480Z,988.47
2023-03-27T07:52:16.667Z,988.45
2023-03-27T07:53:34.042Z,988.47
2023-03-27T07:54:17.455Z,988.41
2023-03-27T07:55:16.447Z,988.41
2023-03-27T07:56:16.489Z,988.43
2023-03-27T07:57:16.496Z,988.48
2023-03-27T07:58:16.540Z,988.43
2023-03-27T07:59:16.402Z,988.48
2023-03-27T08:00:16.388Z,988.54
2023-03-27T08:01:16.453Z,988.54
2023-03-27T08:02:16.366Z,988.54
2023-03-27T08:03:16.496Z,988.51
2023-03-27T08:04:16.441Z,988.49
2023-03-27T08:05:16.383Z,988.57
2023-03-27T08:07:48.237Z,988.54
2023-03-27T08:08:16.351Z,988.59
2023-03-27T08:09:16.352Z,988.58
2023-03-27T08:10:16.315Z,988.63
2023-03-27T08:11:29.578Z,988.67
2023-03-27T08:12:18.306Z,988.64
2023-03-27T08:13:16.286Z,988.67
2023-03-27T08:14:16.278Z,988.65
2023-03-27T08:15:16.263Z,988.82
2023-03-27T08:16:16.332Z,988.78
2023-03-27T08:17:17.716Z,988.79
2023-03-27T08:18:16.248Z,988.86
2023-03-27T08:19:16.219Z,988.87
2023-03-27T08:20:16.226Z,988.83
2023-03-27T08:21:16.184Z,988.88
2023-03-27T08:22:16.182Z,988.84
2023-03-27T08:23:16.196Z,988.97
2023-03-27T08:24:16.170Z,989.00
2023-03-27T08:25:16.207Z,988.99
2023-03-27T08:26:16.125Z,989.08
2023-03-27T08:27:16.228Z,989.07
2023-03-27T08:28:16.115Z,989.05
2023-03-27T08:29:16.233Z,989.20
2023-03-27T08:30:16.919Z,989.16
2023-03-27T08:31:17.174Z,989.16
2023-03-27T08:32:16.087Z,989.16
2023-03-27T08:33:16.080Z,989.26
2023-03-27T08:34:16.048Z,989.22
2023-03-27T08:35:16.147Z,989.18
2023-03-27T08:36:16.115Z,989.23
2023-03-27T08:37:16.020Z,989.16
2023-03-27T08:38:26.291Z,989.21
2023-03-27T08:39:18.075Z,989.25
2023-03-27T08:40:16.013Z,989.30
2023-03-27T08:41:16.013Z,989.26
2023-03-27T08:42:18.443Z,989.27
2023-03-27T08:43:15.975Z,989.22
2023-03-27T08:44:15.948Z,989.18
2023-03-27T08:45:15.960Z,989.18
2023-03-27T08:46:16.022Z,989.23
2023-03-27T08:47:15.965Z,989.19
2023-03-27T08:48:15.947Z,989.14
2023-03-27T08:49:15.927Z,989.19
2023-03-27T08:50:15.928Z,989.12
2023-03-27T08:51:15.938Z,989.12
2023-03-27T08:52:15.866Z,989.08
2023-03-27T08:53:16.005Z,989.12
2023-03-27T08:54:15.933Z,989.05
2023-03-27T08:55:15.846Z,989.06
2023-03-27T08:56:15.849Z,989.07
2023-03-27T08:57:15.897Z,989.09
2023-03-27T08:58:15.841Z,989.10
2023-03-27T08:59:17.353Z,989.10
2023-03-27T09:00:15.790Z,989.11
2023-03-27T09:01:15.840Z,989.11
2023-03-27T09:02:15.812Z,989.15
2023-03-27T09:03:15.936Z,989.11
2023-03-27T09:04:15.772Z,989.05
2023-03-27T09:05:15.758Z,989.18
2023-03-27T09:06:15.724Z,989.23
2023-03-27T09:07:15.721Z,989.18
2023-03-27T09:08:15.735Z,989.26
2023-03-27T09:09:15.717Z,989.22
2023-03-27T09:10:15.727Z,989.28
2023-03-27T09:11:15.707Z,989.21
2023-03-27T09:12:15.686Z,989.21
2023-03-27T09:13:15.704Z,989.28
2023-03-27T09:14:15.672Z,989.29
2023-03-27T09:15:15.697Z,989.26
2023-03-27T09:16:15.829Z,989.37
2023-03-27T09:17:15.663Z,989.25
2023-03-27T09:18:15.632Z,989.30
2023-03-27T09:19:15.658Z,989.36
2023-03-27T09:20:15.642Z,989.36
2023-03-27T09:21:15.612Z,989.41
2023-03-27T09:22:15.578Z,989.35
2023-03-27T09:23:15.575Z,989.31
2023-03-27T09:24:15.585Z,989.31
2023-03-27T09:25:15.557Z,989.27
2023-03-27T09:26:15.544Z,989.22
2023-03-27T09:27:15.527Z,989.23
2023-03-27T09:28:15.550Z,989.21
2023-03-27T09:29:20.071Z,989.30
2023-03-27T09:30:15.500Z,989.32
2023-03-27T09:31:15.557Z,989.30
2023-03-27T09:32:15.546Z,989.35
2023-03-27T09:33:15.542Z,989.28
2023-03-27T09:34:15.482Z,989.41
2023-03-27T09:35:15.533Z,989.40
2023-03-27T09:36:15.509Z,989.38
2023-03-27T09:37:15.450Z,989.36
2023-03-27T09:38:15.440Z,989.33
2023-03-27T09:39:15.449Z,989.36
2023-03-27T09:40:15.430Z,989.36
2023-03-27T09:41:15.422Z,989.32
2023-03-27T09:42:15.417Z,989.40
2023-03-27T09:43:15.409Z,989.33
2023-03-27T09:44:15.399Z,989.34
2023-03-27T09:45:15.400Z,989.38
2023-03-27T09:46:15.364Z,989.41
2023-03-27T09:47:15.349Z,989.33
2023-03-27T09:48:15.364Z,989.44
2023-03-27T09:49:15.321Z,989.47
2023-03-27T09:50:15.401Z,989.42
2023-03-27T09:51:15.304Z,989.52
2023-03-27T09:52:15.311Z,989.51
2023-03-27T09:53:15.454Z,989.59
2023-03-27T09:54:15.291Z,989.55
2023-03-27T09:55:15.295Z,989.59
2023-03-27T09:56:15.291Z,989.61
2023-03-27T09:57:15.329Z,989.66
2023-03-27T09:58:15.249Z,989.71
2023-03-27T09:59:15.262Z,989.61
2023-03-27T10:00:15.270Z,989.62
2023-03-27T10:01:15.208Z,989.63
2023-03-27T10:02:15.206Z,989.61
2023-03-27T10:03:16.746Z,989.57
2023-03-27T10:04:15.244Z,989.63
2023-03-27T10:05:15.180Z,989.55
2023-03-27T10:06:15.171Z,989.54
2023-03-27T10:07:15.152Z,989.60
2023-03-27T10:08:15.146Z,989.40
2023-03-27T10:09:15.142Z,989.57
2023-03-27T10:10:15.195Z,989.55
2023-03-27T10:11:15.126Z,989.57
2023-03-27T10:12:15.171Z,989.56
2023-03-27T10:13:15.109Z,989.62
2023-03-27T10:14:15.069Z,989.60
2023-03-27T10:15:15.076Z,989.61
2023-03-27T10:16:15.135Z,989.56
2023-03-27T10:17:15.104Z,989.57
2023-03-27T10:18:15.088Z,989.48
2023-03-27T10:19:15.071Z,989.47
2023-03-27T10:20:15.062Z,989.56
2023-03-27T10:21:15.037Z,989.51
2023-03-27T10:22:15.041Z,989.53
2023-03-27T10:23:15.009Z,989.65
2023-03-27T10:24:15.013Z,989.60
2023-03-27T10:25:15.005Z,989.55
2023-03-27T10:26:14.990Z,989.60
2023-03-27T10:27:14.955Z,989.61
2023-03-27T10:28:15.077Z,989.69
2023-03-27T10:29:14.931Z,989.68
2023-03-27T10:30:14.940Z,989.66
2023-03-27T10:31:14.952Z,989.80
2023-03-27T10:32:14.968Z,989.73
2023-03-27T10:33:14.936Z,989.73
2023-03-27T10:34:14.938Z,989.74
2023-03-27T10:35:14.920Z,989.80
2023-03-27T10:36:14.865Z,989.87
2023-03-27T10:37:14.849Z,989.78
2023-03-27T10:38:14.841Z,989.71
2023-03-27T10:39:14.865Z,989.70
2023-03-27T10:40:14.847Z,989.71
2023-03-27T10:41:14.827Z,989.73
2023-03-27T10:42:14.829Z,989.73
2023-03-27T10:43:14.821Z,989.76
2023-03-27T10:44:14.800Z,989.71
2023-03-27T10:45:14.818Z,989.79
2023-03-27T10:46:14.917Z,989.84
2023-03-27T10:47:14.757Z,989.86
2023-03-27T10:48:14.748Z,989.98
2023-03-27T10:49:16.224Z,989.89
2023-03-27T10:50:15.728Z,989.98
2023-03-27T10:51:14.720Z,989.96
2023-03-27T10:52:14.762Z,989.97
2023-03-27T10:53:14.915Z,989.87
2023-03-27T10:54:14.785Z,989.93
2023-03-27T10:55:14.768Z,989.94
2023-03-27T10:56:14.668Z,989.90
2023-03-27T10:57:14.771Z,989.90
2023-03-27T10:58:14.668Z,989.82
2023-03-27T10:59:14.657Z,989.89
2023-03-27T11:00:14.753Z,989.86
2023-03-27T11:01:14.655Z,989.85
2023-03-27T11:02:14.643Z,989.80
2023-03-27T11:03:14.730Z,989.87
2023-03-27T11:04:14.676Z,989.81
2023-03-27T11:05:14.603Z,989.84
2023-03-27T11:06:14.575Z,989.86
2023-03-27T11:07:15.937Z,989.87
2023-03-27T11:08:15.599Z,989.91
2023-03-27T11:09:14.583Z,989.87
2023-03-27T11:10:14.528Z,989.88
2023-03-27T11:11:14.542Z,989.77
2023-03-27T11:12:14.538Z,989.84
2023-03-27T11:13:14.495Z,989.90
2023-03-27T11:14:14.664Z,989.91
2023-03-27T11:15:14.480Z,989.89
2023-03-27T11:16:14.514Z,989.88
2023-03-27T11:17:14.466Z,989.96
2023-03-27T11:18:14.464Z,989.97
2023-03-27T11:19:14.459Z,989.99
2023-03-27T11:20:14.468Z,989.87
2023-03-27T11:21:14.439Z,989.97
2023-03-27T11:22:14.462Z,990.03
2023-03-27T11:23:14.402Z,990.03
2023-03-27T11:24:14.419Z,990.10
2023-03-27T11:25:14.455Z,989.95
2023-03-27T11:26:14.383Z,990.02
2023-03-27T11:27:14.757Z,990.01
2023-03-27T11:28:14.409Z,989.94
2023-03-27T11:29:14.352Z,989.95
2023-03-27T11:30:14.370Z,989.89
2023-03-27T11:31:14.364Z,989.88
2023-03-27T11:32:14.334Z,989.93
2023-03-27T11:33:14.321Z,989.96
2023-03-27T11:34:14.292Z,990.02
2023-03-27T11:35:15.307Z,989.98
2023-03-27T11:36:14.282Z,990.14
2023-03-27T11:37:14.269Z,990.12
2023-03-27T11:38:14.269Z,990.15
2023-03-27T11:39:14.307Z,990.19
2023-03-27T11:40:14.241Z,990.31
2023-03-27T11:41:15.444Z,990.31
2023-03-27T11:42:14.261Z,990.39
2023-03-27T11:43:14.351Z,990.43
2023-03-27T11:44:15.230Z,990.51
2023-03-27T11:45:14.233Z,990.54
2023-03-27T11:46:14.236Z,990.49
2023-03-27T11:47:14.197Z,990.50
2023-03-27T11:48:14.268Z,990.55
2023-03-27T11:49:14.125Z,990.63
2023-03-27T11:50:14.233Z,990.64
2023-03-27T11:51:14.142Z,990.64
2023-03-27T11:52:14.225Z,990.71
2023-03-27T11:53:14.163Z,990.67
2023-03-27T11:54:14.079Z,990.65
2023-03-27T11:55:14.117Z,990.67
2023-03-27T11:56:14.090Z,990.53
2023-03-27T11:57:14.128Z,990.52
2023-03-27T11:58:14.202Z,990.56
2023-03-27T11:59:14.200Z,990.53
2023-03-27T12:00:14.051Z,990.46
2023-03-27T12:01:16.032Z,990.45
2023-03-27T12:02:14.101Z,990.39
2023-03-27T12:03:14.076Z,990.47
2023-03-27T12:04:14.089Z,990.48
2023-03-27T12:05:14.055Z,990.41
2023-03-27T12:06:14.012Z,990.43
2023-03-27T12:07:15.373Z,990.40
2023-03-27T12:08:13.992Z,990.44
2023-03-27T12:09:13.967Z,990.44
2023-03-27T12:10:13.961Z,990.44
2023-03-27T12:11:13.965Z,990.48
2023-03-27T12:12:13.957Z,990.40
2023-03-27T12:13:13.956Z,990.37
2023-03-27T12:14:18.437Z,990.37
2023-03-27T12:15:14.894Z,990.42
2023-03-27T12:16:13.960Z,990.36
2023-03-27T12:17:13.872Z,990.42
2023-03-27T12:18:13.896Z,990.41
2023-03-27T12:19:25.109Z,990.36
2023-03-27T12:20:15.894Z,990.39
2023-03-27T12:21:13.843Z,990.41
2023-03-27T12:22:22.939Z,990.49
2023-03-27T12:23:15.835Z,990.33
2023-03-27T12:24:13.868Z,990.49
2023-03-27T12:25:14.049Z,990.50
2023-03-27T12:26:13.807Z,990.65
2023-03-27T12:27:13.804Z,990.71
2023-03-27T12:28:22.175Z,990.69
2023-03-27T12:29:23.478Z,990.64
2023-03-27T12:30:14.723Z,990.61